KDFW METAR and TAF | Updated Today

KDFW METAR

Dallas Fort Worth International Airport

Observation time: 7 min. ago

KDFW 061953Z 05004KT 10SM FEW120 SCT250 32/09 A3012 RMK AO2 SLP190 T03170089

Need help? Read our tutorial on how to read METARs or read the parsed version below.

Dallas Fort Worth International Airport (KDFW) METAR

  • Weather conditions on Thu, 06 Oct 2022 19:53:00 +0000 (7 min. ago):
  • Present conditions: Dry
  • Clouds: A few at 3658 meters; scattered at 7620 meters
  • Visibility: 16093 meters
  • Wind: 50 degrees at 4 knots
  • Temperature: 32 celsius
  • Dew point: 9 celsius
  • Pressure: 30.12 inHg
  • Remarks: AO2 SLP190 T03170089


Useful to know...

KDFW TAF

Dallas Fort Worth International Airport

KDFW 061721Z 0618/0724 02005KT P6SM FEW120 SCT250
Observation time: 2:39 hr. ago
Need help? Read our tutorial on how to read TAFs or read the parsed version below.

Parsed version of TAF for Dallas Fort Worth International Airport (KDFW)

  • From 06 October at 18:00 UTC, to day 07 of the month at 24:00 UTC
  • Clouds: A few at 3658 meters; scattered at 7620 meters
  • Wind: 20 degrees at 5